Time;durP1;ratioP1;P1;durP2;ratioP2;P2;SDS_P1;SDS_P2;PMS_P1;PMS_P2;Temp;Humidity;BMP_temperature;BMP_pressure;BME280_temperature;BME280_humidity;BME280_pressure;Samples;Min_cycle;Max_cycle;Signal;HPM_P1;HPM_P2
2022/11/08 00:02:27;;;;;;;31.95;19.50;;;;;;;14.55;59.22;100234.84;5050452;28;20025;-38
2022/11/08 00:04:52;;;;;;;29.15;18.77;;;;;;;14.68;58.66;100239.31;5049752;28;20385;-38
2022/11/08 00:15:33;;;;;;;25.48;18.25;;;;;;;14.62;58.13;100224.09;5050063;28;20095;-38
2022/11/08 00:17:58;;;;;;;29.65;18.40;;;;;;;14.68;58.53;100235.78;5050290;28;20028;-38
2022/11/08 00:20:24;;;;;;;30.38;18.88;;;;;;;14.58;58.63;100230.91;5049857;28;20021;-38
2022/11/08 00:22:49;;;;;;;30.38;19.23;;;;;;;14.59;58.28;100229.91;5049745;28;20463;-38
2022/11/08 00:25:15;;;;;;;28.95;19.40;;;;;;;14.60;58.26;100228.84;5049793;28;20049;-38
2022/11/08 00:27:40;;;;;;;32.92;19.63;;;;;;;14.44;58.97;100227.50;5052797;28;20041;-38
2022/11/08 00:30:06;;;;;;;30.83;19.50;;;;;;;14.40;58.56;100223.63;5053591;28;20103;-37
2022/11/08 00:32:31;;;;;;;28.80;18.67;;;;;;;14.33;59.70;100226.31;5053616;28;20032;-37
2022/11/08 00:34:57;;;;;;;30.98;19.90;;;;;;;14.27;59.82;100232.56;5053460;28;20020;-37
2022/11/08 00:37:22;;;;;;;30.77;19.08;;;;;;;14.25;59.88;100235.44;5053454;28;20489;-37
2022/11/08 00:39:48;;;;;;;32.00;19.60;;;;;;;14.27;59.78;100230.69;5053354;28;20074;-37
2022/11/08 00:42:14;;;;;;;29.70;19.20;;;;;;;14.28;59.40;100228.84;5053316;28;20017;-38
2022/11/08 00:44:39;;;;;;;33.22;20.02;;;;;;;14.16;59.97;100228.69;5053139;28;20056;-38
2022/11/08 00:47:05;;;;;;;32.95;19.88;;;;;;;13.69;61.88;100215.56;5053612;28;20021;-38
2022/11/08 00:49:30;;;;;;;35.70;20.45;;;;;;;14.01;61.30;100220.13;5053266;28;20087;-37
2022/11/08 00:51:55;;;;;;;32.60;20.10;;;;;;;14.18;60.98;100223.13;5053295;28;20104;-37
2022/11/08 00:54:21;;;;;;;36.17;19.88;;;;;;;14.03;61.45;100223.41;5051653;28;20554;-37
2022/11/08 00:56:47;;;;;;;35.53;19.98;;;;;;;14.13;60.74;100215.75;5052886;28;20446;-37
2022/11/08 00:59:15;;;;;;;34.47;20.65;;;;;;;14.08;61.90;100219.06;5052965;28;20025;-37
2022/11/08 01:01:41;;;;;;;32.55;21.25;;;;;;;13.75;62.71;100210.41;5052422;28;20442;-37
2022/11/08 01:04:07;;;;;;;34.95;21.05;;;;;;;13.97;62.28;100200.19;5052696;28;20027;-36
2022/11/08 01:06:34;;;;;;;31.05;20.83;;;;;;;14.02;62.39;100209.22;5053086;28;20032;-37
2022/11/08 01:08:59;;;;;;;33.35;21.27;;;;;;;14.15;62.15;100202.16;5052796;28;20070;-37
2022/11/08 01:11:25;;;;;;;33.95;21.40;;;;;;;14.22;61.60;100200.25;5053068;28;20100;-37
2022/11/08 01:13:54;;;;;;;32.65;20.70;;;;;;;14.20;61.87;100196.97;5052183;28;20179;-37
2022/11/08 01:16:22;;;;;;;34.10;21.63;;;;;;;14.10;62.36;100193.97;5052658;28;20047;-37
2022/11/08 01:18:49;;;;;;;30.48;21.35;;;;;;;14.23;62.05;100185.84;5052804;28;20138;-38
2022/11/08 01:21:15;;;;;;;31.63;21.73;;;;;;;14.37;61.22;100182.00;5052675;28;20024;-38
2022/11/08 01:23:41;;;;;;;33.25;21.45;;;;;;;14.34;61.35;100178.97;5052333;28;20182;-38
2022/11/08 01:26:11;;;;;;;34.33;22.02;;;;;;;14.49;61.23;100182.16;5051879;28;20547;-37
2022/11/08 01:28:37;;;;;;;33.88;21.70;;;;;;;14.47;60.88;100174.34;5052277;28;20027;-38
2022/11/08 01:31:05;;;;;;;41.95;21.55;;;;;;;14.37;61.46;100179.34;5052485;28;20025;-37
2022/11/08 01:33:31;;;;;;;34.72;22.40;;;;;;;14.58;60.62;100180.03;5052885;28;20028;-37
2022/11/08 01:35:56;;;;;;;35.90;21.70;;;;;;;14.61;60.86;100171.56;5052429;28;20014;-37
2022/11/08 01:38:21;;;;;;;37.35;22.55;;;;;;;14.55;61.17;100164.41;5051636;28;20031;-37
2022/11/08 01:40:48;;;;;;;42.42;22.92;;;;;;;14.53;60.88;100169.97;5052590;28;20021;-37
2022/11/08 01:43:28;;;;;;;35.65;21.83;;;;;;;14.62;61.13;100175.88;5052380;28;20083;-37
2022/11/08 01:46:28;;;;;;;32.38;21.40;;;;;;;14.60;61.64;100167.25;5051947;28;20059;-38
2022/11/08 01:49:07;;;;;;;36.58;22.08;;;;;;;14.56;61.67;100160.66;5052395;28;20091;-38
2022/11/08 01:51:40;;;;;;;34.55;21.92;;;;;;;14.66;61.05;100159.16;5052197;28;20020;-38
2022/11/08 01:54:09;;;;;;;33.88;21.58;;;;;;;14.57;61.21;100151.63;5052092;28;20043;-38
2022/11/08 01:56:35;;;;;;;32.67;21.80;;;;;;;14.48;61.48;100154.53;5052081;28;20025;-37
2022/11/08 01:59:05;;;;;;;32.70;21.48;;;;;;;14.53;61.53;100158.44;5051800;28;20118;-38
2022/11/08 02:01:30;;;;;;;34.42;21.75;;;;;;;14.69;61.12;100163.25;5051299;28;20043;-38
2022/11/08 02:03:57;;;;;;;34.08;20.73;;;;;;;14.60;61.18;100160.06;5051672;28;20469;-38
2022/11/08 02:06:23;;;;;;;31.95;21.10;;;;;;;14.80;60.89;100159.84;5052133;28;20385;-38
2022/11/08 02:08:49;;;;;;;34.13;20.98;;;;;;;14.90;59.93;100156.66;5052027;28;20025;-38
2022/11/08 02:11:16;;;;;;;34.85;21.50;;;;;;;14.95;59.67;100175.59;5051871;28;20025;-38
2022/11/08 02:13:42;;;;;;;33.72;21.17;;;;;;;15.00;59.53;100164.19;5051419;28;20087;-38
2022/11/08 02:16:13;;;;;;;35.45;21.92;;;;;;;14.72;60.92;100160.16;5051862;28;20025;-38
2022/11/08 02:18:40;;;;;;;33.35;21.67;;;;;;;14.66;61.13;100163.72;5051699;28;20025;-39
2022/11/08 02:21:12;;;;;;;31.13;21.02;;;;;;;14.68;61.15;100176.84;5051379;28;20024;-39
2022/11/08 02:23:51;;;;;;;32.38;20.70;;;;;;;14.82;60.23;100165.81;5051475;28;20480;-38
2022/11/08 02:26:20;;;;;;;32.10;20.83;;;;;;;14.82;60.34;100165.81;5051322;28;20028;-38
2022/11/08 02:28:48;;;;;;;33.92;21.48;;;;;;;14.77;60.23;100165.63;5051198;28;20025;-38
2022/11/08 02:31:16;;;;;;;35.10;22.38;;;;;;;14.69;61.07;100173.16;5051233;28;20358;-38
2022/11/08 02:33:42;;;;;;;33.33;21.75;;;;;;;14.76;60.86;100176.59;5051305;28;20100;-38
2022/11/08 02:36:15;;;;;;;35.90;22.38;;;;;;;14.63;60.78;100177.53;5051372;28;20098;-38
2022/11/08 02:38:45;;;;;;;39.17;22.95;;;;;;;14.73;60.62;100175.16;5050593;28;20032;-38
2022/11/08 02:41:11;;;;;;;39.42;23.20;;;;;;;14.50;61.47;100182.97;5051406;28;20377;-38
2022/11/08 02:43:36;;;;;;;35.15;22.70;;;;;;;14.54;60.75;100189.53;5051063;28;20043;-38
2022/11/08 02:46:02;;;;;;;34.65;22.25;;;;;;;14.48;61.33;100186.66;5051143;28;20032;-38
2022/11/08 02:48:28;;;;;;;35.80;23.52;;;;;;;14.44;61.05;100187.34;5051144;28;20028;-38
2022/11/08 02:50:53;;;;;;;37.35;23.15;;;;;;;14.48;61.19;100181.31;5050748;28;20039;-38
2022/11/08 02:53:19;;;;;;;41.83;24.98;;;;;;;14.54;60.98;100178.81;5050345;28;20021;-38
2022/11/08 02:55:44;;;;;;;39.92;23.50;;;;;;;14.55;61.12;100175.09;5051596;28;20044;-38
2022/11/08 02:58:10;;;;;;;37.88;24.42;;;;;;;14.47;61.42;100177.00;5051658;28;20029;-38
2022/11/08 03:00:37;;;;;;;35.75;23.48;;;;;;;14.49;61.44;100182.16;5051260;28;20052;-38
2022/11/08 03:03:03;;;;;;;34.35;23.40;;;;;;;14.39;62.02;100179.97;5051109;28;20025;-38
2022/11/08 03:05:28;;;;;;;35.25;23.30;;;;;;;14.43;61.90;100177.66;5051138;28;20052;-38
2022/11/08 03:07:54;;;;;;;34.40;23.48;;;;;;;14.17;62.56;100173.34;5051304;28;20032;-38
2022/11/08 03:10:20;;;;;;;40.63;24.73;;;;;;;14.36;61.86;100177.72;5051504;28;20021;-38
2022/11/08 03:12:46;;;;;;;40.83;24.30;;;;;;;14.37;61.74;100186.56;5051257;28;20025;-38
2022/11/08 03:15:13;;;;;;;42.13;25.70;;;;;;;14.34;62.11;100181.66;5049966;28;20120;-38
2022/11/08 03:17:39;;;;;;;41.08;25.23;;;;;;;14.16;62.24;100187.75;5051166;28;20029;-38
2022/11/08 03:20:05;;;;;;;37.63;25.63;;;;;;;14.10;62.91;100183.25;5050974;28;20083;-38
2022/11/08 03:22:30;;;;;;;41.38;26.70;;;;;;;14.24;62.47;100176.75;5051076;28;20029;-38
2022/11/08 03:24:56;;;;;;;40.25;24.75;;;;;;;14.20;62.72;100180.91;5050975;28;20064;-38
2022/11/08 03:27:21;;;;;;;42.90;26.65;;;;;;;13.93;63.33;100172.25;5051099;28;20381;-38
2022/11/08 03:29:48;;;;;;;37.85;25.55;;;;;;;13.84;63.70;100171.66;5050893;28;20029;-38
2022/11/08 03:32:14;;;;;;;39.20;25.67;;;;;;;13.96;63.74;100183.34;5051144;28;20025;-38
2022/11/08 03:34:40;;;;;;;38.53;24.73;;;;;;;14.13;62.86;100180.97;5050898;28;20013;-38
2022/11/08 03:37:08;;;;;;;41.95;25.25;;;;;;;14.20;62.89;100187.09;5051019;28;20554;-38
2022/11/08 03:39:33;;;;;;;41.03;25.50;;;;;;;13.82;64.06;100179.09;5050916;28;20024;-37
2022/11/08 03:42:01;;;;;;;38.63;25.48;;;;;;;13.85;64.76;100187.50;5050962;28;20145;-38
2022/11/08 03:44:28;;;;;;;42.42;25.27;;;;;;;14.14;63.53;100182.59;5050525;28;20051;-38
2022/11/08 03:46:53;;;;;;;43.13;25.40;;;;;;;14.26;62.61;100183.56;5050791;28;20025;-38
2022/11/08 03:49:19;;;;;;;41.65;26.60;;;;;;;14.28;63.10;100183.34;5057109;28;20028;-38
2022/11/08 03:51:44;;;;;;;45.95;26.25;;;;;;;14.38;62.36;100189.03;5051456;28;20074;-38
2022/11/08 03:54:10;;;;;;;40.30;25.80;;;;;;;14.27;62.60;100179.00;5070414;28;20173;-38
2022/11/08 03:56:35;;;;;;;40.80;24.23;;;;;;;13.95;63.74;100176.34;5060349;28;20027;-39
2022/11/08 03:59:01;;;;;;;36.35;23.50;;;;;;;13.57;64.69;100171.78;5050785;28;20029;-37
2022/11/08 04:01:26;;;;;;;37.88;23.25;;;;;;;13.57;64.92;100162.97;5053934;28;20028;-42
2022/11/08 04:03:51;;;;;;;38.63;23.70;;;;;;;13.36;65.79;100161.41;5055150;28;20028;-38
2022/11/08 04:06:17;;;;;;;37.53;24.00;;;;;;;13.35;65.62;100147.22;5057988;28;20012;-40
2022/11/08 04:08:42;;;;;;;41.20;24.55;;;;;;;13.62;65.04;100158.63;5072011;28;20019;-37
2022/11/08 04:16:35;;;;;;;60.10;38.00;;;;;;;13.89;63.98;100172.66;5074383;28;20036;-37
2022/11/08 04:21:51;;;;;;;41.78;27.08;;;;;;;13.94;63.72;100168.53;5074634;28;20067;-36
2022/11/08 04:24:16;;;;;;;37.92;24.20;;;;;;;13.91;63.95;100169.78;5074264;28;20048;-36
2022/11/08 04:26:45;;;;;;;35.55;23.05;;;;;;;14.03;64.66;100164.56;5073236;28;20101;-37
2022/11/08 04:29:10;;;;;;;37.53;24.05;;;;;;;14.26;63.52;100167.50;5071711;28;20035;-38
2022/11/08 04:31:36;;;;;;;43.67;24.13;;;;;;;14.27;62.61;100173.66;5074338;28;20021;-37
2022/11/08 04:34:02;;;;;;;43.97;25.38;;;;;;;14.26;62.98;100172.03;5055742;28;20449;-37
2022/11/08 04:36:28;;;;;;;40.22;25.20;;;;;;;14.25;62.81;100173.88;5053400;28;20093;-38
2022/11/08 04:38:53;;;;;;;37.97;23.60;;;;;;;14.31;62.79;100182.09;5053300;28;20024;-37
2022/11/08 04:41:21;;;;;;;39.75;24.15;;;;;;;14.24;62.75;100190.97;5054115;28;20052;-37
2022/11/08 04:43:48;;;;;;;38.83;24.13;;;;;;;14.25;62.99;100194.47;5054276;28;20048;-38
2022/11/08 04:46:19;;;;;;;45.40;25.10;;;;;;;14.31;62.90;100192.78;5054300;28;20043;-37
2022/11/08 04:48:45;;;;;;;41.35;26.40;;;;;;;14.29;62.61;100190.31;5052855;28;20071;-37
2022/11/08 04:51:28;;;;;;;46.72;27.02;;;;;;;14.45;62.87;100192.47;5053074;28;20032;-37
2022/11/08 04:53:56;;;;;;;41.28;25.83;;;;;;;14.24;63.20;100199.00;5053174;28;20393;-37
2022/11/08 04:56:22;;;;;;;39.55;26.00;;;;;;;14.18;63.03;100191.03;5053229;28;20048;-37
2022/11/08 04:58:56;;;;;;;40.25;25.92;;;;;;;14.11;63.16;100204.47;5053578;28;20346;-37
2022/11/08 05:01:24;;;;;;;38.72;25.08;;;;;;;14.11;63.41;100206.28;5053622;28;20078;-38
2022/11/08 05:03:51;;;;;;;41.30;24.70;;;;;;;14.26;63.42;100204.97;5053356;28;20438;-37
2022/11/08 05:06:22;;;;;;;45.17;25.88;;;;;;;14.30;62.76;100208.03;5053028;28;20036;-38
2022/11/08 05:08:48;;;;;;;43.80;25.50;;;;;;;14.32;62.69;100207.78;5053466;28;20155;-37
2022/11/08 05:11:20;;;;;;;53.80;29.75;;;;;;;14.26;63.35;100217.53;5053184;28;20032;-38
2022/11/08 05:13:47;;;;;;;39.50;26.30;;;;;;;14.20;62.99;100213.03;5052314;28;20465;-37
2022/11/08 05:16:14;;;;;;;40.58;25.40;;;;;;;14.18;63.04;100223.94;5053409;28;20025;-37
2022/11/08 05:18:40;;;;;;;54.75;33.50;;;;;;;14.20;62.96;100226.41;5053492;28;20055;-37
2022/11/08 05:23:50;;;;;;;43.75;27.40;;;;;;;14.32;62.30;100218.50;5053086;28;20063;-38
2022/11/08 05:26:19;;;;;;;45.80;26.45;;;;;;;14.35;62.17;100218.91;5053121;28;20065;-37
2022/11/08 05:28:44;;;;;;;46.63;27.10;;;;;;;14.40;61.79;100221.75;5050976;28;20086;-37
2022/11/08 05:31:10;;;;;;;44.92;26.08;;;;;;;14.45;62.16;100216.56;5052390;28;20033;-37
2022/11/08 05:33:36;;;;;;;43.60;26.95;;;;;;;14.56;61.77;100228.44;5051978;28;20033;-37
2022/11/08 05:36:03;;;;;;;43.40;26.00;;;;;;;14.62;61.20;100224.94;5051405;28;20028;-37
2022/11/08 05:38:29;;;;;;;47.20;28.27;;;;;;;14.57;61.67;100226.63;5052250;28;20112;-37
2022/11/08 05:41:00;;;;;;;45.17;26.80;;;;;;;14.46;64.48;100226.22;5052094;28;20083;-37
2022/11/08 05:43:25;;;;;;;41.92;26.67;;;;;;;14.44;64.26;100228.31;5051859;28;20192;-36
2022/11/08 05:45:51;;;;;;;45.15;25.58;;;;;;;14.63;62.32;100215.84;5051413;28;20087;-36
2022/11/08 05:48:16;;;;;;;42.75;26.83;;;;;;;14.71;61.58;100230.81;5051460;28;20040;-37
2022/11/08 05:50:42;;;;;;;47.25;27.23;;;;;;;14.76;61.68;100227.50;5051595;28;20025;-39
2022/11/08 05:53:07;;;;;;;48.00;27.23;;;;;;;14.68;61.77;100231.28;5051682;28;20025;-38
2022/11/08 05:55:33;;;;;;;45.17;26.38;;;;;;;14.89;63.41;100239.94;5051519;28;20030;-38
2022/11/08 05:57:58;;;;;;;46.40;27.90;;;;;;;14.82;61.78;100232.78;5050785;28;20021;-38
2022/11/08 06:00:23;;;;;;;47.53;26.60;;;;;;;14.79;61.16;100232.41;5051670;28;20025;-36
2022/11/08 06:02:49;;;;;;;45.13;27.23;;;;;;;14.83;61.25;100239.81;5051781;28;20461;-36
2022/11/08 06:05:14;;;;;;;51.20;29.85;;;;;;;14.65;62.90;100237.88;5050962;28;20044;-37
2022/11/08 06:07:40;;;;;;;56.42;33.80;;;;;;;14.42;64.62;100243.78;5051269;28;20039;-37
2022/11/08 06:10:06;;;;;;;42.95;26.90;;;;;;;14.77;62.65;100243.34;5047848;28;20023;-37
2022/11/08 06:12:31;;;;;;;47.72;28.02;;;;;;;14.75;61.96;100252.63;5051105;28;20044;-38
2022/11/08 06:14:57;;;;;;;45.22;26.13;;;;;;;14.97;61.48;100247.72;5050553;28;20029;-38
2022/11/08 06:17:22;;;;;;;50.08;26.55;;;;;;;14.98;60.28;100252.03;5050639;28;20029;-38
2022/11/08 06:19:48;;;;;;;44.35;26.70;;;;;;;14.80;60.80;100237.53;5051457;28;20104;-38
2022/11/08 06:22:13;;;;;;;42.63;26.35;;;;;;;14.75;61.41;100249.97;5050987;28;20039;-37
2022/11/08 06:24:38;;;;;;;39.00;24.45;;;;;;;14.72;61.56;100245.88;5050419;28;20052;-37
2022/11/08 06:27:04;;;;;;;43.53;25.08;;;;;;;14.70;60.93;100255.13;5050717;28;20020;-37
2022/11/08 06:29:29;;;;;;;41.55;24.60;;;;;;;14.59;61.55;100257.50;5050716;28;20387;-37
2022/11/08 06:31:57;;;;;;;49.08;24.35;;;;;;;14.41;61.84;100254.69;5050349;28;20086;-37
2022/11/08 06:34:23;;;;;;;43.60;25.35;;;;;;;14.20;62.60;100250.50;5050230;28;20025;-38
2022/11/08 06:36:48;;;;;;;47.10;25.00;;;;;;;14.48;61.36;100267.00;5050510;28;20032;-37
2022/11/08 06:39:14;;;;;;;55.33;26.50;;;;;;;14.54;61.33;100262.63;5050721;28;20032;-37
2022/11/08 06:41:39;;;;;;;45.20;25.20;;;;;;;14.37;61.63;100258.84;5050559;28;20029;-37
2022/11/08 06:44:05;;;;;;;46.35;25.77;;;;;;;14.12;62.40;100259.59;5050823;28;20040;-38
2022/11/08 06:46:30;;;;;;;46.85;26.67;;;;;;;14.14;62.84;100267.44;5050319;28;20052;-37
2022/11/08 06:48:55;;;;;;;48.25;26.73;;;;;;;14.00;63.51;100258.66;5051091;28;20028;-37
2022/11/08 06:51:21;;;;;;;46.70;27.40;;;;;;;14.11;65.15;100255.31;5050479;28;20062;-36
2022/11/08 06:53:46;;;;;;;48.25;27.15;;;;;;;14.47;62.68;100264.56;5050192;28;20366;-37
2022/11/08 06:56:12;;;;;;;42.65;25.85;;;;;;;14.62;62.24;100261.59;5049965;28;20040;-37
2022/11/08 06:58:37;;;;;;;45.25;27.35;;;;;;;14.97;60.72;100264.63;5049839;28;20133;-37
2022/11/08 07:01:05;;;;;;;44.75;27.27;;;;;;;14.86;60.91;100268.00;5050059;28;20027;-44
2022/11/08 07:03:31;;;;;;;45.60;27.60;;;;;;;14.94;60.42;100273.06;5050414;28;20567;-43
2022/11/08 07:05:57;;;;;;;49.08;28.05;;;;;;;14.91;60.75;100272.69;5050172;28;20090;-42
2022/11/08 07:08:22;;;;;;;45.30;28.05;;;;;;;14.70;61.43;100271.22;5030710;28;20025;-45
2022/11/08 07:10:47;;;;;;;41.58;28.02;;;;;;;14.91;61.25;100260.13;5030712;28;20021;-44
2022/11/08 07:13:13;;;;;;;55.55;29.15;;;;;;;15.08;60.33;100265.75;5029469;28;20464;-43
2022/11/08 07:15:40;;;;;;;54.35;29.63;;;;;;;15.15;60.24;100258.47;5041974;28;20017;-44
2022/11/08 07:18:11;;;;;;;50.38;28.92;;;;;;;15.53;58.67;100257.44;5044167;28;20045;-43
2022/11/08 07:20:37;;;;;;;46.60;28.75;;;;;;;15.76;58.30;100251.47;5050405;28;20021;-43
2022/11/08 07:23:03;;;;;;;49.92;28.13;;;;;;;16.19;57.05;100260.41;5050261;28;20459;-44
2022/11/08 07:25:30;;;;;;;46.30;28.27;;;;;;;16.39;56.18;100260.09;5050199;28;20049;-43
2022/11/08 07:28:03;;;;;;;42.58;26.67;;;;;;;16.65;55.78;100264.25;5050008;28;20029;-44
2022/11/08 07:30:29;;;;;;;45.60;27.20;;;;;;;17.14;54.70;100264.91;5049588;28;20069;-44
2022/11/08 07:32:55;;;;;;;47.03;28.35;;;;;;;17.44;53.71;100263.97;5050011;28;20166;-44
2022/11/08 07:35:21;;;;;;;50.15;26.38;;;;;;;17.23;54.12;100261.88;5050067;28;20492;-44
2022/11/08 07:37:46;;;;;;;37.90;22.88;;;;;;;17.72;53.35;100265.06;5049293;28;20029;-46
2022/11/08 07:40:13;;;;;;;36.80;23.42;;;;;;;18.48;51.76;100257.66;5048734;28;20040;-43
2022/11/08 07:42:39;;;;;;;41.78;22.90;;;;;;;18.31;51.15;100256.81;5049127;28;20029;-44
2022/11/08 07:45:07;;;;;;;33.83;21.17;;;;;;;18.72;50.11;100261.03;5049348;28;20032;-44
2022/11/08 07:47:32;;;;;;;35.10;21.38;;;;;;;18.90;49.83;100259.97;5048390;28;20400;-44
2022/11/08 07:49:58;;;;;;;35.85;21.98;;;;;;;18.91;49.50;100252.72;5049801;28;20037;-43
2022/11/08 07:52:24;;;;;;;36.60;21.40;;;;;;;19.19;48.83;100256.34;5049794;28;20032;-43
2022/11/08 07:54:49;;;;;;;39.30;22.40;;;;;;;19.30;48.36;100261.66;5049861;28;20021;-43
2022/11/08 07:57:14;;;;;;;32.05;20.85;;;;;;;19.02;48.58;100257.22;5049935;28;20435;-46
2022/11/08 07:59:40;;;;;;;34.90;20.13;;;;;;;18.90;48.85;100254.59;5049850;28;20230;-42
2022/11/08 08:02:05;;;;;;;30.55;19.83;;;;;;;19.08;48.01;100258.09;5050016;28;20021;-43
2022/11/08 08:04:31;;;;;;;33.45;20.75;;;;;;;18.93;48.22;100250.59;5050004;28;20025;-44
2022/11/08 08:06:57;;;;;;;34.08;20.55;;;;;;;18.93;48.58;100258.69;5049969;28;20096;-44
2022/11/08 08:09:24;;;;;;;36.50;21.67;;;;;;;19.07;48.68;100257.28;5049765;28;20021;-43
2022/11/08 08:11:49;;;;;;;35.17;21.23;;;;;;;18.88;48.66;100255.91;5049620;28;20075;-42
2022/11/08 08:14:14;;;;;;;33.90;20.83;;;;;;;18.42;50.00;100252.44;5049804;28;20465;-42
2022/11/08 08:16:40;;;;;;;34.63;20.52;;;;;;;18.39;50.18;100250.22;5049866;28;20147;-42
2022/11/08 08:19:05;;;;;;;32.75;20.10;;;;;;;18.42;50.28;100255.13;5050079;28;20021;-44
2022/11/08 08:21:31;;;;;;;34.75;20.13;;;;;;;18.59;49.54;100257.84;5049734;28;20496;-44
2022/11/08 08:23:56;;;;;;;31.20;19.73;;;;;;;18.46;50.42;100258.97;5049364;28;20025;-45
2022/11/08 08:26:22;;;;;;;30.00;18.33;;;;;;;19.19;48.78;100259.06;5049801;28;20084;-42
2022/11/08 08:28:47;;;;;;;33.80;18.50;;;;;;;18.90;48.32;100256.47;5049394;28;20457;-43
2022/11/08 08:31:12;;;;;;;33.17;19.17;;;;;;;19.10;48.44;100254.09;5049696;28;20028;-43
2022/11/08 08:33:38;;;;;;;30.52;18.58;;;;;;;19.30;47.95;100256.25;5049424;28;20029;-43
2022/11/08 08:36:03;;;;;;;33.83;18.08;;;;;;;18.97;48.62;100261.72;5049330;28;20017;-45
2022/11/08 08:38:30;;;;;;;28.77;18.95;;;;;;;19.41;48.35;100253.69;5049845;28;20115;-42
2022/11/08 08:40:57;;;;;;;27.23;19.25;;;;;;;19.09;48.42;100255.13;5048676;28;20048;-42
2022/11/08 08:43:23;;;;;;;32.25;18.17;;;;;;;19.53;47.36;100260.63;5049477;28;20025;-43
2022/11/08 08:45:48;;;;;;;28.67;18.42;;;;;;;19.76;47.04;100261.44;5049927;28;20432;-42
2022/11/08 08:48:14;;;;;;;30.23;19.20;;;;;;;19.84;46.82;100250.22;5050127;28;20185;-42
2022/11/08 08:50:39;;;;;;;30.88;17.73;;;;;;;19.89;46.66;100266.47;5053136;28;20017;-42
2022/11/08 08:53:06;;;;;;;29.65;17.13;;;;;;;20.40;46.00;100243.78;5053123;28;20066;-43
2022/11/08 08:55:34;;;;;;;28.20;16.30;;;;;;;20.40;45.39;100254.59;5053082;28;20041;-43
2022/11/08 08:57:59;;;;;;;28.70;16.23;;;;;;;20.42;47.06;100252.44;5053238;28;20020;-41
2022/11/08 09:00:25;;;;;;;28.33;15.60;;;;;;;20.87;44.58;100248.53;5052812;28;20090;-42
2022/11/08 09:02:51;;;;;;;23.17;15.57;;;;;;;20.68;44.37;100248.91;5053098;28;20032;-42
2022/11/08 09:05:16;;;;;;;25.90;16.98;;;;;;;20.61;45.25;100251.00;5053584;28;20096;-43
2022/11/08 09:07:41;;;;;;;24.88;15.23;;;;;;;21.29;43.64;100248.50;5053376;28;20025;-45
2022/11/08 09:10:09;;;;;;;25.92;15.32;;;;;;;20.65;44.45;100248.59;5052479;28;20151;-43
2022/11/08 09:12:36;;;;;;;24.67;15.10;;;;;;;21.38;43.05;100253.41;5053485;28;20081;-43
2022/11/08 09:15:03;;;;;;;24.48;14.45;;;;;;;21.42;42.96;100252.66;5051693;28;20546;-43
2022/11/08 09:17:28;;;;;;;25.23;15.02;;;;;;;22.02;42.13;100249.63;5053152;28;20420;-44
2022/11/08 09:19:54;;;;;;;23.13;15.02;;;;;;;22.09;41.16;100246.69;5052882;28;20111;-43
2022/11/08 09:22:20;;;;;;;24.88;14.48;;;;;;;22.36;41.14;100244.59;5052730;28;20086;-43
2022/11/08 09:24:46;;;;;;;25.70;14.05;;;;;;;22.36;41.66;100249.19;5052368;28;20059;-43
2022/11/08 09:27:11;;;;;;;23.60;14.90;;;;;;;22.92;40.15;100251.09;5052447;28;20025;-47
2022/11/08 09:29:36;;;;;;;19.63;14.43;;;;;;;22.82;39.58;100246.47;5052319;28;20032;-43
2022/11/08 09:32:02;;;;;;;23.13;15.10;;;;;;;23.11;39.03;100240.50;5052398;28;20038;-45
2022/11/08 09:34:28;;;;;;;22.88;16.27;;;;;;;22.74;39.67;100238.91;5052349;28;20025;-43
2022/11/08 09:36:53;;;;;;;25.48;15.98;;;;;;;22.15;41.25;100243.72;5052671;28;20117;-45
2022/11/08 09:39:19;;;;;;;24.92;14.68;;;;;;;23.11;40.14;100233.16;5052178;28;20465;-45
2022/11/08 09:41:56;;;;;;;26.67;14.57;;;;;;;23.55;38.97;100240.66;5052250;28;20070;-44
2022/11/08 09:45:05;;;;;;;21.88;14.52;;;;;;;23.60;37.55;100231.66;5052065;28;20064;-43
2022/11/08 09:47:36;;;;;;;20.40;13.60;;;;;;;23.65;37.83;100230.84;5052298;28;20029;-44
2022/11/08 09:50:11;;;;;;;26.10;14.63;;;;;;;23.51;38.33;100239.56;5052046;28;20370;-43
2022/11/08 09:52:40;;;;;;;27.85;17.35;;;;;;;23.60;38.37;100229.75;5052048;28;20017;-43
2022/11/08 09:55:14;;;;;;;24.85;17.42;;;;;;;23.78;37.95;100239.22;5051987;28;20051;-43
2022/11/08 09:58:07;;;;;;;30.75;17.65;;;;;;;23.00;39.42;100232.34;5052067;28;20025;-44
2022/11/08 10:00:36;;;;;;;27.60;15.90;;;;;;;23.28;38.57;100226.63;5051629;28;20025;-42
2022/11/08 10:03:02;;;;;;;24.17;14.50;;;;;;;23.74;38.11;100232.69;5051879;28;20029;-44
2022/11/08 10:05:38;;;;;;;23.55;15.27;;;;;;;24.36;37.55;100230.41;5051533;28;20104;-43
2022/11/08 10:08:06;;;;;;;24.13;16.17;;;;;;;24.92;36.64;100225.59;5051748;28;20079;-43
2022/11/08 10:11:00;;;;;;;21.80;14.77;;;;;;;25.27;35.51;100210.84;5051514;28;20022;-44
2022/11/08 10:13:38;;;;;;;22.73;15.70;;;;;;;25.38;35.21;100219.72;5051659;28;20086;-44
2022/11/08 10:16:21;;;;;;;27.48;18.45;;;;;;;24.66;36.08;100208.72;5051548;28;20021;-45
2022/11/08 10:19:06;;;;;;;28.38;16.85;;;;;;;23.90;37.99;100216.34;5051427;28;20032;-42
2022/11/08 10:21:41;;;;;;;27.70;16.75;;;;;;;23.32;38.91;100217.66;5051875;28;20029;-46
2022/11/08 10:24:16;;;;;;;25.13;17.25;;;;;;;23.27;39.35;100208.72;5050779;28;20053;-43
2022/11/08 10:26:46;;;;;;;25.15;15.93;;;;;;;23.82;38.00;100215.03;5051480;28;20040;-45
2022/11/08 10:29:19;;;;;;;27.23;15.52;;;;;;;23.93;37.42;100211.16;5051997;28;20032;-43
2022/11/08 10:31:47;;;;;;;30.52;19.23;;;;;;;24.22;37.32;100212.28;5051271;28;20021;-43
2022/11/08 10:34:19;;;;;;;26.83;16.52;;;;;;;24.31;36.93;100205.16;5051661;28;20017;-44
2022/11/08 10:36:54;;;;;;;31.20;17.23;;;;;;;23.09;39.13;100210.09;5051503;28;20401;-44
2022/11/08 10:39:25;;;;;;;25.83;15.10;;;;;;;23.60;38.32;100213.44;5051686;28;20051;-44
2022/11/08 10:42:15;;;;;;;26.85;15.65;;;;;;;23.91;37.98;100202.47;5051526;28;20074;-43
2022/11/08 10:44:42;;;;;;;23.35;15.70;;;;;;;24.36;36.94;100199.69;5051394;28;20028;-44
2022/11/08 10:47:23;;;;;;;22.95;15.07;;;;;;;24.00;37.09;100205.38;5051384;28;20076;-43
2022/11/08 10:49:49;;;;;;;25.33;14.65;;;;;;;24.18;36.71;100199.28;5051143;28;20020;-43
2022/11/08 10:52:18;;;;;;;25.45;14.88;;;;;;;23.73;37.94;100201.16;5050665;28;20028;-45
2022/11/08 10:54:45;;;;;;;;;;;;;;;24.28;36.78;100186.72;5051441;28;20082;-44
2022/11/08 10:57:43;;;;;;;24.65;13.77;;;;;;;23.78;37.95;100190.31;5050874;28;19947;-44
2022/11/08 11:00:18;;;;;;;33.38;14.80;;;;;;;23.68;38.06;100184.06;5049241;28;20428;-44
2022/11/08 11:02:45;;;;;;;22.90;15.05;;;;;;;23.89;37.36;100177.44;5050682;28;20106;-44
2022/11/08 11:05:16;;;;;;;22.08;14.55;;;;;;;23.21;38.77;100184.28;5050350;28;20021;-46
2022/11/08 11:08:08;;;;;;;28.02;15.43;;;;;;;22.10;40.86;100172.44;5050919;28;20040;-43
2022/11/08 11:10:45;;;;;;;24.13;15.02;;;;;;;21.78;41.43;100165.31;5050733;28;20017;-43
2022/11/08 11:13:25;;;;;;;29.42;16.88;;;;;;;22.44;40.49;100159.97;5050671;28;20033;-44
2022/11/08 11:16:01;;;;;;;;;;;;;;;22.84;39.68;100165.63;5051006;28;20024;-44
2022/11/08 11:18:49;;;;;;;29.20;14.32;;;;;;;23.24;38.89;100161.19;5050898;28;20402;-43
2022/11/08 11:21:17;;;;;;;24.17;14.52;;;;;;;22.85;39.18;100159.13;5050718;28;20512;-43
2022/11/08 11:23:49;;;;;;;24.17;14.60;;;;;;;21.81;40.95;100160.19;5050492;28;20032;-42
2022/11/08 11:26:37;;;;;;;26.75;15.63;;;;;;;21.68;41.82;100160.69;5050632;28;20518;-44
2022/11/08 11:29:03;;;;;;;23.55;15.50;;;;;;;22.37;40.42;100155.91;5050001;28;20033;-44
2022/11/08 11:31:29;;;;;;;30.73;14.02;;;;;;;22.01;41.06;100162.13;5049026;28;20033;-43
2022/11/08 11:33:56;;;;;;;25.15;15.02;;;;;;;22.02;40.89;100158.31;5050304;28;20033;-42